Yeager Airport Charleston US
ICAO: KCRW
IATA: CRW
Category: Large
Scheduled Services: Yes

Elevation: 981 ft
TransAlt. 18000 ft.

Airport Communications:
CHARLESTON APP/DEP:128.5
ATIS:127.6
CLNC DEL:118.55
GND:121.8
ANG COMD POST/OPS:30.23
ELKINS RDO:122.2
CHARLESTON TWR:125.7
UNICOM:122.95

KCRW Zoom In..

If you have problems with the map follow the link
https://www.worldairports.se/pages/airport.php?
ICAO=KCRW

Runways:

(A) RW 05 length 6802 ft width 150 ft
ILS 110.30 / hdg 53

(B) RW 23 length 6802 ft width 150 ft
ILS 110.30 / hdg 233

Location; KCRW
Day. 29 / Time. 17.54 Zulu
* Altimeter: 30.10
* Temperature: 02° c. 35.6°f.
* Wind from: VRB° Speed 03 kn.
Dewpoint: -03° c.
Visibility: 10 Statute Miles.
Clouds: Few 1600 ft.
Clouds: Overcast 2800 ft.

KCRW 291754Z VRB03KT 10SM FEW016 OVC028 02/M03 A3010 RMK AO2 SLP200 60000 T00221028 10022 20006 58015


Wind From VRB°
Speed 03 kn.

 
 
jpsmedia worldairports.se 2020   terms of use